createdAt,value
2019-02-16T00:00:49.071Z,61.76
2019-02-16T00:03:18.575Z,62.71
2019-02-16T00:05:48.090Z,61.58
2019-02-16T00:08:17.619Z,63.11
2019-02-16T00:10:47.077Z,63.01
2019-02-16T00:13:16.784Z,64.25
2019-02-16T00:15:46.186Z,63.87
2019-02-16T00:18:15.831Z,64.88
2019-02-16T00:20:45.283Z,63.40
2019-02-16T00:23:14.613Z,63.36
2019-02-16T00:25:44.135Z,63.93
2019-02-16T00:28:15.324Z,63.94
2019-02-16T00:30:46.269Z,63.55
2019-02-16T00:33:15.680Z,63.23
2019-02-16T00:35:44.990Z,62.94
2019-02-16T00:38:14.401Z,62.62
2019-02-16T00:40:43.786Z,63.44
2019-02-16T00:43:13.119Z,62.63
2019-02-16T00:45:42.501Z,62.37
2019-02-16T00:48:11.837Z,62.05
2019-02-16T00:50:41.329Z,62.50
2019-02-16T00:53:10.868Z,63.08
2019-02-16T00:55:40.358Z,64.35
2019-02-16T00:58:09.831Z,64.38
2019-02-16T01:00:39.146Z,63.73
2019-02-16T01:03:08.801Z,63.27
2019-02-16T01:05:38.458Z,64.08
2019-02-16T01:08:08.110Z,64.26
2019-02-16T01:10:37.665Z,64.05
2019-02-16T01:13:07.008Z,63.24
2019-02-16T01:15:36.560Z,63.24
2019-02-16T01:18:05.898Z,63.26
2019-02-16T01:20:35.387Z,63.26
2019-02-16T01:23:04.726Z,64.28
2019-02-16T01:25:34.375Z,64.24
2019-02-16T01:28:03.855Z,64.37
2019-02-16T01:30:33.310Z,65.19
2019-02-16T01:33:04.449Z,64.80
2019-02-16T01:35:33.932Z,64.39
2019-02-16T01:38:03.418Z,63.55
2019-02-16T01:40:32.856Z,63.98
2019-02-16T01:43:02.377Z,64.21
2019-02-16T01:45:31.899Z,62.82
2019-02-16T01:48:01.305Z,62.77
2019-02-16T01:50:30.683Z,64.84
2019-02-16T01:53:00.087Z,64.83
2019-02-16T01:55:29.566Z,64.60
2019-02-16T01:57:59.039Z,64.27
2019-02-16T02:00:28.494Z,63.24
2019-02-16T02:02:57.831Z,63.24
2019-02-16T02:05:27.285Z,64.02
2019-02-16T02:07:56.827Z,63.25
2019-02-16T02:10:26.357Z,63.39
2019-02-16T02:12:55.934Z,63.46
2019-02-16T02:15:25.320Z,63.92
2019-02-16T02:17:54.652Z,63.44
2019-02-16T02:20:25.376Z,63.71
2019-02-16T02:22:54.885Z,63.68
2019-02-16T02:25:24.605Z,64.31
2019-02-16T02:27:54.106Z,63.53
2019-02-16T02:30:23.592Z,63.94
2019-02-16T02:32:52.902Z,63.16
2019-02-16T02:35:22.551Z,63.16
2019-02-16T02:37:52.141Z,62.92
2019-02-16T02:40:21.794Z,63.75
2019-02-16T02:42:51.181Z,64.37
2019-02-16T02:45:20.751Z,63.38
2019-02-16T02:47:50.307Z,64.07
2019-02-16T02:50:19.782Z,64.11
2019-02-16T02:52:49.335Z,64.44
2019-02-16T02:55:18.666Z,63.67
2019-02-16T02:57:48.080Z,63.30
2019-02-16T03:00:17.605Z,63.31
2019-02-16T03:02:47.067Z,64.16
2019-02-16T03:05:16.394Z,64.00
2019-02-16T03:07:45.771Z,64.37
2019-02-16T03:10:15.174Z,64.90
2019-02-16T03:12:44.561Z,64.24
2019-02-16T03:15:13.970Z,63.43
2019-02-16T03:17:43.279Z,64.81
2019-02-16T03:20:12.620Z,63.94
2019-02-16T03:23:14.417Z,64.43
2019-02-16T03:25:51.323Z,64.14
2019-02-16T03:28:34.584Z,65.82
2019-02-16T03:31:43.047Z,65.73
2019-02-16T03:34:28.603Z,65.17
2019-02-16T03:37:23.913Z,65.06
2019-02-16T03:39:53.583Z,65.22
2019-02-16T03:42:23.402Z,65.46
2019-02-16T03:44:53.047Z,65.25
2019-02-16T03:47:22.701Z,64.73
2019-02-16T03:49:52.210Z,65.41
2019-02-16T03:52:21.692Z,64.99
2019-02-16T03:54:51.167Z,65.11
2019-02-16T03:57:20.717Z,65.57
2019-02-16T03:59:50.060Z,64.58
2019-02-16T04:02:19.542Z,64.22
2019-02-16T04:04:49.052Z,64.47
2019-02-16T04:07:18.531Z,64.64
2019-02-16T04:09:48.411Z,64.75
2019-02-16T04:12:17.863Z,65.12
2019-02-16T04:14:47.198Z,64.50
2019-02-16T04:17:16.752Z,64.69
2019-02-16T04:19:46.246Z,64.70
2019-02-16T04:22:24.249Z,64.48
2019-02-16T04:24:48.697Z,63.81
2019-02-16T04:27:18.085Z,64.31
2019-02-16T04:29:47.627Z,63.70
2019-02-16T04:32:17.083Z,64.76
2019-02-16T04:34:46.424Z,64.85
2019-02-16T04:37:15.885Z,64.92
2019-02-16T04:39:45.354Z,64.71
2019-02-16T04:42:14.737Z,65.60
2019-02-16T04:44:44.217Z,64.23
2019-02-16T04:47:13.590Z,63.47
2019-02-16T04:49:43.045Z,63.80
2019-02-16T04:52:12.554Z,64.71
2019-02-16T04:54:42.207Z,64.73
2019-02-16T04:57:13.176Z,64.54
2019-02-16T04:59:42.654Z,63.97
2019-02-16T05:02:12.402Z,65.32
2019-02-16T05:04:42.118Z,64.77
2019-02-16T05:07:11.761Z,64.82
2019-02-16T05:09:41.416Z,64.90
2019-02-16T05:12:10.748Z,64.78
2019-02-16T05:14:40.229Z,65.04
2019-02-16T05:17:09.568Z,65.57
2019-02-16T05:19:39.219Z,65.92
2019-02-16T05:22:08.686Z,66.15
2019-02-16T05:24:40.941Z,65.97
2019-02-16T05:27:10.444Z,65.73
2019-02-16T05:29:39.831Z,66.97
2019-02-16T05:32:09.470Z,66.51
2019-02-16T05:34:38.850Z,65.63
2019-02-16T05:37:08.382Z,65.39
2019-02-16T05:39:37.833Z,66.32
2019-02-16T05:42:07.172Z,66.85
2019-02-16T05:44:36.550Z,66.53
2019-02-16T05:47:05.950Z,66.12
2019-02-16T05:49:35.333Z,66.10
2019-02-16T05:52:04.805Z,66.16
2019-02-16T05:54:34.259Z,66.67
2019-02-16T05:57:03.592Z,66.38
2019-02-16T05:59:32.978Z,66.62
2019-02-16T06:02:02.318Z,66.37
2019-02-16T06:04:31.761Z,66.66
2019-02-16T06:07:01.164Z,65.29
2019-02-16T06:09:30.617Z,64.71
2019-02-16T06:12:00.120Z,65.65
2019-02-16T06:14:29.566Z,64.82
2019-02-16T06:16:58.898Z,64.84
2019-02-16T06:19:28.214Z,65.33
2019-02-16T06:21:57.757Z,65.14
2019-02-16T06:24:27.202Z,65.98
2019-02-16T06:26:56.534Z,65.15
2019-02-16T06:29:26.024Z,65.84
2019-02-16T06:31:55.352Z,65.96
2019-02-16T06:34:28.336Z,66.26
2019-02-16T06:36:57.969Z,65.13
2019-02-16T06:39:27.344Z,65.50
2019-02-16T06:41:56.963Z,65.64
2019-02-16T06:44:26.511Z,64.46
2019-02-16T06:46:55.851Z,64.31
2019-02-16T06:49:25.352Z,64.51
2019-02-16T06:51:54.676Z,65.13
2019-02-16T06:54:24.228Z,64.80
2019-02-16T06:57:01.537Z,64.78
2019-02-16T06:59:31.025Z,66.10
2019-02-16T07:02:00.358Z,65.93
2019-02-16T07:04:29.820Z,65.66
2019-02-16T07:06:59.305Z,65.33
2019-02-16T07:09:28.749Z,64.94
2019-02-16T07:11:58.065Z,64.93
2019-02-16T07:14:27.471Z,65.10
2019-02-16T07:16:58.591Z,65.10
2019-02-16T07:19:29.710Z,65.06
2019-02-16T07:21:59.533Z,65.00
2019-02-16T07:24:29.009Z,65.37
2019-02-16T07:26:58.459Z,65.16
2019-02-16T07:29:27.933Z,65.24
2019-02-16T07:31:57.585Z,65.14
2019-02-16T07:34:27.001Z,65.25
2019-02-16T07:36:56.587Z,65.45
2019-02-16T07:39:26.082Z,65.32
2019-02-16T07:41:57.305Z,65.52
2019-02-16T07:44:30.957Z,65.79
2019-02-16T07:47:18.006Z,65.82
2019-02-16T07:49:59.513Z,66.01
2019-02-16T07:52:33.491Z,66.35
2019-02-16T07:55:09.698Z,66.84
2019-02-16T07:57:40.675Z,66.70
2019-02-16T08:00:11.825Z,66.75
2019-02-16T08:02:42.955Z,66.63
2019-02-16T08:05:13.913Z,67.06
2019-02-16T08:07:47.836Z,66.71
2019-02-16T08:10:34.198Z,67.80
2019-02-16T08:13:11.318Z,67.09
2019-02-16T08:15:47.854Z,67.37
2019-02-16T08:18:27.906Z,68.01
2019-02-16T08:21:08.073Z,68.48
2019-02-16T08:23:40.570Z,68.16
2019-02-16T08:26:20.825Z,67.60
2019-02-16T08:28:52.016Z,67.86
2019-02-16T08:31:26.737Z,67.09
2019-02-16T08:34:01.049Z,66.70
2019-02-16T08:36:40.871Z,66.05
2019-02-16T08:39:12.238Z,66.21
2019-02-16T08:41:43.923Z,65.42
2019-02-16T08:44:15.038Z,65.73
2019-02-16T08:46:58.466Z,65.61
2019-02-16T08:49:38.144Z,65.45
2019-02-16T08:52:09.232Z,65.47
2019-02-16T08:54:43.283Z,65.36
2019-02-16T08:57:29.955Z,65.22
2019-02-16T09:00:08.193Z,65.05
2019-02-16T09:02:51.553Z,65.04
2019-02-16T09:05:25.454Z,65.01
2019-02-16T09:08:05.678Z,65.15
2019-02-16T09:10:36.828Z,66.29
2019-02-16T09:13:07.956Z,65.23
2019-02-16T09:15:41.834Z,65.01
2019-02-16T09:18:12.791Z,65.05
2019-02-16T09:20:46.663Z,65.93
2019-02-16T09:23:29.674Z,64.98
2019-02-16T09:26:12.912Z,65.13
2019-02-16T09:28:43.885Z,65.06
2019-02-16T09:31:30.933Z,65.14
2019-02-16T09:34:14.061Z,65.41
2019-02-16T09:36:51.067Z,66.12
2019-02-16T09:39:22.265Z,64.85
2019-02-16T09:41:56.527Z,64.73
2019-02-16T09:44:27.720Z,65.36
2019-02-16T09:47:12.096Z,64.76
2019-02-16T09:49:51.018Z,64.64
2019-02-16T09:52:24.597Z,64.20
2019-02-16T09:54:55.624Z,63.97
2019-02-16T09:57:35.527Z,63.67
2019-02-16T10:00:14.017Z,63.74
2019-02-16T10:03:01.454Z,64.28
2019-02-16T10:05:48.322Z,64.16
2019-02-16T10:08:19.325Z,63.40
2019-02-16T10:10:53.459Z,62.81
2019-02-16T10:13:23.744Z,62.91
2019-02-16T10:15:58.150Z,62.83
2019-02-16T10:18:32.195Z,63.26
2019-02-16T10:21:17.748Z,62.95
2019-02-16T10:24:01.061Z,61.92
2019-02-16T10:26:32.139Z,61.46
2019-02-16T10:29:11.839Z,60.69
2019-02-16T10:31:42.933Z,60.03
2019-02-16T10:34:20.254Z,59.43
2019-02-16T10:36:51.622Z,59.15
2019-02-16T10:39:25.499Z,58.57
2019-02-16T10:42:08.875Z,58.22
2019-02-16T10:44:45.542Z,58.04
2019-02-16T10:47:32.520Z,57.96
2019-02-16T10:50:09.786Z,57.55
2019-02-16T10:52:45.185Z,57.60
2019-02-16T10:55:22.287Z,57.37
2019-02-16T10:57:56.373Z,56.88
2019-02-16T11:00:43.127Z,57.25
2019-02-16T11:03:15.808Z,56.99
2019-02-16T11:05:56.162Z,56.48
2019-02-16T11:08:28.746Z,55.87
2019-02-16T11:11:05.452Z,55.52
2019-02-16T11:13:42.096Z,55.77
2019-02-16T11:16:19.104Z,55.41
2019-02-16T11:18:52.910Z,56.41
2019-02-16T11:21:26.811Z,56.34
2019-02-16T11:24:13.238Z,55.06
2019-02-16T11:26:44.429Z,54.70
2019-02-16T11:29:13.582Z,54.25
2019-02-16T11:31:47.670Z,53.82
2019-02-16T11:34:30.703Z,53.36
2019-02-16T11:37:04.670Z,53.25
2019-02-16T11:39:40.019Z,53.03
2019-02-16T11:42:30.855Z,52.38
2019-02-16T11:45:04.419Z,51.95
2019-02-16T11:47:39.838Z,51.85
2019-02-16T11:50:26.063Z,51.23
2019-02-16T11:53:13.405Z,50.60
2019-02-16T11:56:00.795Z,49.75
2019-02-16T11:58:41.162Z,49.25
2019-02-16T12:01:16.346Z,49.14
2019-02-16T12:04:03.852Z,47.48
2019-02-16T12:06:42.599Z,48.43
2019-02-16T12:09:13.892Z,48.33
2019-02-16T12:11:48.911Z,47.16
2019-02-16T12:14:37.691Z,46.23
2019-02-16T12:17:08.839Z,47.01
2019-02-16T12:19:52.066Z,46.11
2019-02-16T12:22:23.124Z,45.31
2019-02-16T12:25:05.400Z,45.41
2019-02-16T12:27:47.197Z,44.64
2019-02-16T12:30:24.067Z,44.69
2019-02-16T12:33:00.853Z,45.01
2019-02-16T12:35:43.471Z,44.63
2019-02-16T12:38:17.011Z,44.55
2019-02-16T12:40:54.913Z,43.90
2019-02-16T12:43:24.145Z,43.91
2019-02-16T12:46:11.276Z,43.87
2019-02-16T12:48:57.330Z,42.72
2019-02-16T12:51:43.372Z,42.09
2019-02-16T12:54:26.643Z,41.97
2019-02-16T12:57:03.199Z,41.41
2019-02-16T12:59:34.212Z,41.99
2019-02-16T13:02:12.292Z,41.50
2019-02-16T13:04:49.081Z,41.28
2019-02-16T13:07:32.148Z,40.77
2019-02-16T13:10:12.265Z,40.24
2019-02-16T13:12:46.327Z,40.43
2019-02-16T13:15:20.567Z,39.95
2019-02-16T13:17:57.779Z,38.67
2019-02-16T13:20:26.865Z,38.72
2019-02-16T13:23:00.945Z,38.18
2019-02-16T13:25:34.468Z,37.89
2019-02-16T13:28:08.604Z,35.85
2019-02-16T13:30:51.621Z,36.97
2019-02-16T13:33:22.731Z,34.34
2019-02-16T13:36:02.781Z,33.85
2019-02-16T13:38:33.987Z,34.86
2019-02-16T13:41:08.013Z,34.17
2019-02-16T13:43:40.498Z,33.37
2019-02-16T13:46:09.678Z,32.94
2019-02-16T13:48:43.673Z,33.37
2019-02-16T13:51:30.813Z,32.97
2019-02-16T13:54:17.375Z,31.62
2019-02-16T13:56:51.349Z,30.62
2019-02-16T13:59:38.389Z,27.73
2019-02-16T14:02:09.453Z,28.47
2019-02-16T14:04:52.822Z,28.23
2019-02-16T14:07:23.805Z,27.84
2019-02-16T14:10:04.898Z,28.49
2019-02-16T14:12:36.025Z,28.66
2019-02-16T14:15:11.687Z,29.44
2019-02-16T14:17:42.880Z,29.26
2019-02-16T14:20:12.268Z,29.06
2019-02-16T14:22:41.689Z,28.79
2019-02-16T14:25:12.721Z,29.13
2019-02-16T14:27:42.132Z,26.91
2019-02-16T14:30:13.334Z,26.79
2019-02-16T14:32:42.897Z,27.30
2019-02-16T14:35:12.287Z,27.28
2019-02-16T14:37:46.075Z,26.48
2019-02-16T14:40:15.392Z,26.34
2019-02-16T14:42:44.733Z,26.49
2019-02-16T14:45:15.863Z,25.81
2019-02-16T14:47:45.321Z,26.25
2019-02-16T14:50:16.760Z,25.81
2019-02-16T14:52:45.852Z,26.36
2019-02-16T14:55:19.340Z,26.78
2019-02-16T14:57:48.658Z,26.20
2019-02-16T15:00:18.008Z,26.23
2019-02-16T15:02:47.388Z,27.45
2019-02-16T15:05:16.807Z,25.79
2019-02-16T15:07:46.191Z,27.37
2019-02-16T15:10:15.756Z,27.56
2019-02-16T15:12:45.244Z,27.26
2019-02-16T15:15:14.703Z,27.49
2019-02-16T15:17:44.121Z,27.31
2019-02-16T15:20:16.255Z,28.70
2019-02-16T15:22:45.763Z,28.07
2019-02-16T15:25:16.127Z,28.10
2019-02-16T15:27:45.456Z,28.50
2019-02-16T15:30:20.414Z,29.92
2019-02-16T15:32:49.766Z,29.75
2019-02-16T15:35:20.573Z,31.56
2019-02-16T15:37:50.064Z,31.02
2019-02-16T15:40:19.550Z,32.59
2019-02-16T15:42:48.872Z,33.91
2019-02-16T15:45:18.285Z,36.83
2019-02-16T15:47:47.602Z,37.32
2019-02-16T15:50:16.954Z,38.70
2019-02-16T15:52:46.410Z,40.59
2019-02-16T15:55:15.762Z,41.51
2019-02-16T15:57:45.157Z,42.28
2019-02-16T16:00:18.069Z,43.95
2019-02-16T16:02:47.519Z,44.48
2019-02-16T16:05:16.864Z,45.02
2019-02-16T16:07:48.209Z,46.64
2019-02-16T16:10:19.318Z,46.30
2019-02-16T16:12:52.987Z,46.42
2019-02-16T16:15:31.223Z,47.27
2019-02-16T16:18:02.257Z,47.35
2019-02-16T16:20:33.240Z,46.58
2019-02-16T16:23:04.204Z,46.90
2019-02-16T16:25:35.372Z,47.87
2019-02-16T16:28:22.386Z,48.72
2019-02-16T16:30:53.440Z,49.37
2019-02-16T16:33:24.396Z,50.06
2019-02-16T16:35:55.588Z,50.33
2019-02-16T16:38:29.884Z,50.42
2019-02-16T16:41:00.202Z,50.57
2019-02-16T16:43:31.840Z,51.28
2019-02-16T16:46:02.862Z,51.19
2019-02-16T16:48:36.563Z,51.34
2019-02-16T16:51:11.765Z,50.78
2019-02-16T16:53:42.815Z,51.12
2019-02-16T16:56:28.751Z,51.16
2019-02-16T16:58:53.661Z,49.96
2019-02-16T17:01:27.530Z,50.86
2019-02-16T17:03:58.501Z,51.11
2019-02-16T17:06:36.807Z,51.24
2019-02-16T17:09:25.887Z,52.25
2019-02-16T17:12:13.491Z,50.59
2019-02-16T17:14:56.208Z,50.92
2019-02-16T17:17:27.249Z,51.24
2019-02-16T17:19:58.346Z,52.22
2019-02-16T17:22:30.664Z,51.17
2019-02-16T17:25:17.824Z,51.77
2019-02-16T17:27:54.584Z,52.39
2019-02-16T17:30:32.663Z,52.44
2019-02-16T17:33:12.606Z,52.93
2019-02-16T17:35:43.597Z,53.37
2019-02-16T17:38:32.945Z,53.22
2019-02-16T17:41:13.159Z,53.57
2019-02-16T17:43:57.614Z,53.45
2019-02-16T17:46:45.151Z,53.45
2019-02-16T17:49:21.930Z,55.17
2019-02-16T17:52:05.197Z,54.25
2019-02-16T17:54:37.470Z,54.55
2019-02-16T17:57:20.111Z,54.77
2019-02-16T17:59:54.170Z,54.53
2019-02-16T18:02:25.266Z,55.23
2019-02-16T18:05:05.205Z,55.12
2019-02-16T18:07:39.166Z,55.77
2019-02-16T18:10:13.016Z,55.87
2019-02-16T18:12:44.038Z,55.79
2019-02-16T18:15:18.050Z,55.90
2019-02-16T18:18:07.427Z,55.91
2019-02-16T18:20:55.070Z,55.39
2019-02-16T18:23:31.489Z,55.15
2019-02-16T18:26:17.869Z,54.96
2019-02-16T18:28:57.016Z,55.05
2019-02-16T18:31:21.918Z,54.51
2019-02-16T18:33:55.947Z,55.21
2019-02-16T18:36:43.221Z,54.91
2019-02-16T18:39:30.781Z,55.10
2019-02-16T18:42:07.760Z,54.96
2019-02-16T18:44:36.987Z,56.75
2019-02-16T18:47:23.935Z,55.77
2019-02-16T18:49:57.561Z,55.33
2019-02-16T18:52:44.766Z,55.96
2019-02-16T18:55:25.902Z,55.40
2019-02-16T18:57:59.337Z,56.19
2019-02-16T19:00:33.028Z,56.49
2019-02-16T19:03:14.473Z,56.42
2019-02-16T19:06:00.707Z,56.51
2019-02-16T19:08:45.108Z,56.15
2019-02-16T19:11:31.406Z,55.97
2019-02-16T19:14:08.313Z,56.09
2019-02-16T19:16:52.347Z,55.77
2019-02-16T19:19:23.464Z,55.89
2019-02-16T19:21:54.438Z,55.64
2019-02-16T19:24:31.014Z,56.06
2019-02-16T19:27:04.998Z,56.98
2019-02-16T19:29:36.140Z,56.86
2019-02-16T19:32:07.230Z,56.60
2019-02-16T19:34:47.225Z,56.35
2019-02-16T19:37:18.356Z,56.36
2019-02-16T19:39:49.503Z,56.51
2019-02-16T19:42:39.172Z,56.83
2019-02-16T19:45:13.594Z,57.11
2019-02-16T19:47:47.663Z,57.27
2019-02-16T19:50:16.888Z,57.20
2019-02-16T19:52:48.010Z,57.28
2019-02-16T19:55:19.016Z,57.68
2019-02-16T19:57:50.134Z,57.90
2019-02-16T20:00:21.429Z,57.76
2019-02-16T20:02:52.793Z,57.05
2019-02-16T20:05:35.954Z,57.07
2019-02-16T20:08:10.223Z,58.23
2019-02-16T20:10:44.110Z,57.95
2019-02-16T20:13:31.912Z,57.85
2019-02-16T20:16:05.792Z,57.81
2019-02-16T20:18:39.222Z,57.72
2019-02-16T20:21:12.823Z,57.62
2019-02-16T20:23:43.956Z,58.48
2019-02-16T20:26:32.861Z,58.14
2019-02-16T20:29:03.818Z,57.96
2019-02-16T20:31:34.880Z,57.70
2019-02-16T20:34:10.194Z,58.40
2019-02-16T20:36:42.633Z,58.75
2019-02-16T20:39:30.015Z,59.05
2019-02-16T20:42:09.615Z,59.64
2019-02-16T20:44:40.577Z,60.21
2019-02-16T20:47:20.347Z,60.04
2019-02-16T20:49:53.808Z,60.39
2019-02-16T20:52:40.135Z,60.56
2019-02-16T20:55:11.127Z,60.52
2019-02-16T20:57:48.392Z,59.23
2019-02-16T21:00:18.706Z,59.04
2019-02-16T21:02:49.688Z,59.55
2019-02-16T21:05:29.765Z,59.61
2019-02-16T21:08:11.209Z,59.36
2019-02-16T21:10:51.428Z,58.70
2019-02-16T21:13:26.637Z,58.23
2019-02-16T21:16:00.901Z,58.17
2019-02-16T21:18:34.411Z,58.05
2019-02-16T21:21:08.501Z,57.90
2019-02-16T21:23:48.019Z,58.42
2019-02-16T21:26:22.175Z,58.96
2019-02-16T21:28:52.596Z,58.26
2019-02-16T21:31:33.102Z,58.62
2019-02-16T21:34:04.267Z,58.46
2019-02-16T21:36:47.420Z,58.44
2019-02-16T21:39:18.582Z,59.35
2019-02-16T21:41:49.532Z,60.48
2019-02-16T21:44:35.588Z,60.82
2019-02-16T21:47:09.627Z,60.81
2019-02-16T21:49:46.129Z,60.81
2019-02-16T21:52:18.896Z,60.84
2019-02-16T21:54:52.978Z,60.55
2019-02-16T21:57:40.334Z,60.45
2019-02-16T22:00:24.419Z,61.23
2019-02-16T22:02:55.466Z,60.79
2019-02-16T22:05:27.134Z,59.45
2019-02-16T22:07:58.270Z,60.12
2019-02-16T22:10:41.424Z,59.42
2019-02-16T22:13:10.746Z,62.28
2019-02-16T22:15:40.468Z,60.48
2019-02-16T22:18:10.017Z,60.92
2019-02-16T22:20:39.470Z,60.66
2019-02-16T22:23:09.225Z,60.44
2019-02-16T22:25:38.609Z,61.59
2019-02-16T22:28:17.926Z,60.79
2019-02-16T22:30:39.361Z,61.18
2019-02-16T22:33:09.042Z,60.47
2019-02-16T22:35:38.530Z,61.84
2019-02-16T22:38:08.010Z,62.36
2019-02-16T22:40:37.565Z,61.77
2019-02-16T22:43:07.499Z,60.04
2019-02-16T22:45:36.987Z,60.29
2019-02-16T22:48:06.607Z,60.23
2019-02-16T22:50:36.257Z,60.16
2019-02-16T22:53:05.574Z,59.94
2019-02-16T22:55:36.547Z,60.24
2019-02-16T22:58:06.166Z,60.95
2019-02-16T23:00:37.458Z,61.84
2019-02-16T23:03:07.909Z,61.41
2019-02-16T23:05:37.260Z,61.65
2019-02-16T23:08:06.713Z,61.51
2019-02-16T23:10:36.058Z,61.34
2019-02-16T23:13:05.578Z,62.28
2019-02-16T23:15:35.059Z,61.19
2019-02-16T23:18:04.581Z,61.60
2019-02-16T23:20:34.079Z,61.58
2019-02-16T23:23:03.738Z,60.78
2019-02-16T23:25:33.194Z,61.85
2019-02-16T23:28:02.606Z,60.98
2019-02-16T23:30:32.063Z,60.85
2019-02-16T23:33:01.543Z,60.23
2019-02-16T23:35:31.094Z,60.66
2019-02-16T23:38:00.496Z,61.22
2019-02-16T23:40:29.877Z,60.29
2019-02-16T23:43:02.023Z,61.08
2019-02-16T23:45:31.573Z,61.83
2019-02-16T23:48:01.087Z,60.96
2019-02-16T23:50:30.613Z,61.49
2019-02-16T23:53:00.310Z,61.00
2019-02-16T23:55:29.790Z,61.35
2019-02-16T23:57:59.109Z,61.60
